createdAt,value
2023-02-12T00:00:52.687Z,14.00
2023-02-12T00:03:19.118Z,12.23
2023-02-12T00:05:45.739Z,15.82
2023-02-12T00:08:16.166Z,16.92
2023-02-12T00:10:46.449Z,16.83
2023-02-12T00:13:13.137Z,16.20
2023-02-12T00:15:40.670Z,18.98
2023-02-12T00:18:07.544Z,13.48
2023-02-12T00:20:34.346Z,16.58
2023-02-12T00:23:03.241Z,16.92
2023-02-12T00:25:29.871Z,14.50
2023-02-12T00:27:56.238Z,17.73
2023-02-12T00:30:22.704Z,19.42
2023-02-12T00:32:49.239Z,14.35
2023-02-12T00:35:16.153Z,15.15
2023-02-12T00:37:42.764Z,14.15
2023-02-12T00:40:09.708Z,18.35
2023-02-12T00:42:36.056Z,15.48
2023-02-12T00:45:04.747Z,13.10
2023-02-12T00:47:31.178Z,10.85
2023-02-12T00:49:57.550Z,11.60
2023-02-12T00:52:23.883Z,11.98
2023-02-12T00:54:50.290Z,13.18
2023-02-12T00:57:16.652Z,13.38
2023-02-12T00:59:43.096Z,18.48
2023-02-12T01:02:09.615Z,14.70
2023-02-12T01:04:36.093Z,12.50
2023-02-12T01:07:02.595Z,13.32
2023-02-12T01:09:29.154Z,13.18
2023-02-12T01:11:55.561Z,13.88
2023-02-12T01:14:22.028Z,11.15
2023-02-12T01:16:48.529Z,16.60
2023-02-12T01:19:15.319Z,12.18
2023-02-12T01:21:44.128Z,13.98
2023-02-12T01:24:15.573Z,12.73
2023-02-12T01:26:42.071Z,14.70
2023-02-12T01:29:11.688Z,11.68
2023-02-12T01:31:39.847Z,13.40
2023-02-12T01:34:07.817Z,11.98
2023-02-12T01:36:37.415Z,15.35
2023-02-12T01:39:05.481Z,15.23
2023-02-12T01:41:40.455Z,12.52
2023-02-12T01:44:13.006Z,12.18
2023-02-12T01:46:39.975Z,13.55
2023-02-12T01:49:12.528Z,10.73
2023-02-12T01:51:40.629Z,12.32
2023-02-12T01:54:09.900Z,9.88
2023-02-12T01:56:36.524Z,9.82
2023-02-12T01:59:03.392Z,14.35
2023-02-12T02:01:32.466Z,14.23
2023-02-12T02:04:05.350Z,13.15
2023-02-12T02:06:39.660Z,12.70
2023-02-12T02:09:06.232Z,13.60
2023-02-12T02:11:50.965Z,11.40
2023-02-12T02:14:32.844Z,10.40
2023-02-12T02:17:20.665Z,12.73
2023-02-12T02:20:24.273Z,11.32
2023-02-12T02:23:12.880Z,10.43
2023-02-12T02:26:04.174Z,9.82
2023-02-12T02:28:42.958Z,15.85
2023-02-12T02:31:41.035Z,11.43
2023-02-12T02:34:19.320Z,15.15
2023-02-12T02:37:00.569Z,12.80
2023-02-12T02:39:59.856Z,15.95
2023-02-12T02:42:37.586Z,12.45
2023-02-12T02:45:18.822Z,15.18
2023-02-12T02:47:55.957Z,13.20
2023-02-12T02:50:25.936Z,12.52
2023-02-12T02:52:57.225Z,9.63
2023-02-12T02:55:26.931Z,12.27
2023-02-12T02:58:05.988Z,10.23
2023-02-12T03:00:38.809Z,9.18
2023-02-12T03:03:17.016Z,14.30
2023-02-12T03:05:49.629Z,12.98
2023-02-12T03:08:25.130Z,13.27
2023-02-12T03:10:57.464Z,11.85
2023-02-12T03:13:34.088Z,10.15
2023-02-12T03:16:06.863Z,10.27
2023-02-12T03:18:42.801Z,10.95
2023-02-12T03:21:13.981Z,13.75
2023-02-12T03:23:52.872Z,11.55
2023-02-12T03:26:31.015Z,10.02
2023-02-12T03:28:57.456Z,8.88
2023-02-12T03:31:45.523Z,12.32
2023-02-12T03:34:35.063Z,16.55
2023-02-12T03:37:18.004Z,15.07
2023-02-12T03:40:00.919Z,12.65
2023-02-12T03:42:33.769Z,11.95
2023-02-12T03:45:33.824Z,11.05
2023-02-12T03:48:28.781Z,13.13
2023-02-12T03:51:13.214Z,10.60
2023-02-12T03:53:39.685Z,14.40
2023-02-12T03:56:14.075Z,10.60
2023-02-12T03:58:42.943Z,15.02
2023-02-12T04:01:09.979Z,15.30
2023-02-12T04:03:36.625Z,11.90
2023-02-12T04:06:03.458Z,12.10
2023-02-12T04:08:32.384Z,15.88
2023-02-12T04:11:13.571Z,12.18
2023-02-12T04:13:54.755Z,12.70
2023-02-12T04:16:37.853Z,13.40
2023-02-12T04:19:04.899Z,17.33
2023-02-12T04:21:55.840Z,14.13
2023-02-12T04:24:40.361Z,12.40
2023-02-12T04:27:24.275Z,11.07
2023-02-12T04:30:05.680Z,15.05
2023-02-12T04:32:52.827Z,11.73
2023-02-12T04:35:22.447Z,11.52
2023-02-12T04:37:55.305Z,13.07
2023-02-12T04:40:23.056Z,14.70
2023-02-12T04:42:52.270Z,11.68
2023-02-12T04:45:31.276Z,10.32
2023-02-12T04:47:57.949Z,9.65
2023-02-12T04:50:24.772Z,12.98
2023-02-12T04:52:52.862Z,14.02
2023-02-12T04:55:19.534Z,11.32
2023-02-12T04:57:46.012Z,10.23
2023-02-12T05:00:17.399Z,14.40
2023-02-12T05:02:44.021Z,15.20
2023-02-12T05:05:10.658Z,14.00
2023-02-12T05:07:37.345Z,10.02
2023-02-12T05:10:04.192Z,11.60
2023-02-12T05:12:30.768Z,10.77
2023-02-12T05:14:57.999Z,15.07
2023-02-12T05:17:24.968Z,15.00
2023-02-12T05:19:51.766Z,12.55
2023-02-12T05:22:18.380Z,12.48
2023-02-12T05:24:45.395Z,11.95
2023-02-12T05:27:11.939Z,13.35
2023-02-12T05:29:38.840Z,10.55
2023-02-12T05:32:07.309Z,12.02
2023-02-12T05:34:36.720Z,12.93
2023-02-12T05:37:03.511Z,11.40
2023-02-12T05:39:39.273Z,10.90
2023-02-12T05:42:05.939Z,12.77
2023-02-12T05:44:32.464Z,11.30
2023-02-12T05:47:06.755Z,13.00
2023-02-12T05:49:36.439Z,11.93
2023-02-12T05:52:03.224Z,11.10
2023-02-12T05:54:29.643Z,10.82
2023-02-12T05:56:56.386Z,10.63
2023-02-12T05:59:23.823Z,10.20
2023-02-12T06:01:52.288Z,10.77
2023-02-12T06:04:29.328Z,13.35
2023-02-12T06:06:56.663Z,9.80
2023-02-12T06:09:23.866Z,9.50
2023-02-12T06:11:50.541Z,12.15
2023-02-12T06:14:21.505Z,10.52
2023-02-12T06:16:50.260Z,12.20
2023-02-12T06:22:03.582Z,12.10
2023-02-12T06:24:30.215Z,13.98
2023-02-12T06:26:58.774Z,11.05
2023-02-12T06:29:27.361Z,10.05
2023-02-12T06:31:57.757Z,9.25
2023-02-12T06:34:24.236Z,9.90
2023-02-12T06:36:53.454Z,9.05
2023-02-12T06:39:19.879Z,11.85
2023-02-12T06:41:46.636Z,16.23
2023-02-12T06:44:13.431Z,10.15
2023-02-12T06:46:42.133Z,13.63
2023-02-12T06:49:08.579Z,10.50
2023-02-12T06:51:40.336Z,13.63
2023-02-12T06:54:16.829Z,9.00
2023-02-12T06:56:46.645Z,10.55
2023-02-12T06:59:15.554Z,12.38
2023-02-12T07:01:42.438Z,16.60
2023-02-12T07:04:21.015Z,17.50
2023-02-12T07:06:47.857Z,18.42
2023-02-12T07:09:15.451Z,21.67
2023-02-12T07:11:41.851Z,28.70
2023-02-12T07:14:13.929Z,27.02
2023-02-12T07:16:40.645Z,21.15
2023-02-12T07:19:07.230Z,20.77
2023-02-12T07:21:42.783Z,21.08
2023-02-12T07:24:18.101Z,23.88
2023-02-12T07:26:44.670Z,20.63
2023-02-12T07:29:13.527Z,16.50
2023-02-12T07:31:41.749Z,18.02
2023-02-12T07:34:10.105Z,12.25
2023-02-12T07:36:37.530Z,15.68
2023-02-12T07:39:04.673Z,17.15
2023-02-12T07:41:34.009Z,14.18
2023-02-12T07:44:07.628Z,20.83
2023-02-12T07:46:39.576Z,16.58
2023-02-12T07:49:07.940Z,17.25
2023-02-12T07:51:35.667Z,16.40
2023-02-12T07:54:09.985Z,15.63
2023-02-12T07:56:40.842Z,13.57
2023-02-12T07:59:11.241Z,13.38
2023-02-12T08:01:46.208Z,11.52
2023-02-12T08:04:15.419Z,12.20
2023-02-12T08:06:45.044Z,10.52
2023-02-12T08:09:15.811Z,13.63
2023-02-12T08:11:42.895Z,12.70
2023-02-12T08:14:12.628Z,12.57
2023-02-12T08:16:40.943Z,13.73
2023-02-12T08:19:19.418Z,13.60
2023-02-12T08:21:57.314Z,11.98
2023-02-12T08:24:28.629Z,13.95
2023-02-12T08:26:55.958Z,13.75
2023-02-12T08:29:31.422Z,11.93
2023-02-12T08:32:03.216Z,13.68
2023-02-12T08:34:45.169Z,13.65
2023-02-12T08:37:14.805Z,13.57
2023-02-12T08:39:43.617Z,12.77
2023-02-12T08:42:14.799Z,14.32
2023-02-12T08:44:42.565Z,12.75
2023-02-12T08:47:10.047Z,14.07
2023-02-12T08:49:36.590Z,13.35
2023-02-12T08:52:05.236Z,13.60
2023-02-12T08:54:34.129Z,13.70
2023-02-12T08:57:02.422Z,14.13
2023-02-12T08:59:29.843Z,14.48
2023-02-12T09:01:56.849Z,14.30
2023-02-12T09:04:30.279Z,14.10
2023-02-12T09:06:59.414Z,12.57
2023-02-12T09:09:26.002Z,13.38
2023-02-12T09:11:56.478Z,13.50
2023-02-12T09:14:31.335Z,11.57
2023-02-12T09:17:03.253Z,11.55
2023-02-12T09:19:29.801Z,12.57
2023-02-12T09:21:58.982Z,11.00
2023-02-12T09:24:30.452Z,12.98
2023-02-12T09:26:57.023Z,12.97
2023-02-12T09:29:23.417Z,12.70
2023-02-12T09:31:52.284Z,15.55
2023-02-12T09:34:18.932Z,14.25
2023-02-12T09:36:47.815Z,13.10
2023-02-12T09:39:19.972Z,13.30
2023-02-12T09:42:08.430Z,12.38
2023-02-12T09:44:42.704Z,14.27
2023-02-12T09:47:30.283Z,13.43
2023-02-12T09:50:11.000Z,13.07
2023-02-12T09:52:37.860Z,13.57
2023-02-12T09:55:05.092Z,12.98
2023-02-12T09:57:37.822Z,13.52
2023-02-12T10:00:16.156Z,13.73
2023-02-12T10:02:42.821Z,12.57
2023-02-12T10:05:35.096Z,13.10
2023-02-12T10:08:26.071Z,17.35
2023-02-12T10:11:22.851Z,16.20
2023-02-12T10:14:08.313Z,14.25
2023-02-12T10:17:03.447Z,15.57
2023-02-12T10:19:51.229Z,15.10
2023-02-12T10:22:23.719Z,13.55
2023-02-12T10:24:59.258Z,14.30
2023-02-12T10:27:46.772Z,14.05
2023-02-12T10:30:23.774Z,13.50
2023-02-12T10:32:54.877Z,15.40
2023-02-12T10:35:25.035Z,15.43
2023-02-12T10:38:04.418Z,15.77
2023-02-12T10:40:37.720Z,17.50
2023-02-12T10:43:04.249Z,15.45
2023-02-12T10:45:33.969Z,15.43
2023-02-12T10:48:16.814Z,14.38
2023-02-12T10:51:05.360Z,13.93
2023-02-12T10:53:43.420Z,15.27
2023-02-12T10:56:13.059Z,14.15
2023-02-12T10:58:42.611Z,14.48
2023-02-12T11:01:19.871Z,16.75
2023-02-12T11:03:46.863Z,15.55
2023-02-12T11:06:22.753Z,15.18
2023-02-12T11:08:51.856Z,15.20
2023-02-12T11:11:23.023Z,14.30
2023-02-12T11:14:04.044Z,14.15
2023-02-12T11:16:32.284Z,12.20
2023-02-12T11:19:01.429Z,13.55
2023-02-12T11:21:28.133Z,13.40
2023-02-12T11:23:56.934Z,10.02
2023-02-12T11:26:30.666Z,9.48
2023-02-12T11:29:04.067Z,7.40
2023-02-12T11:31:33.550Z,8.07
2023-02-12T11:34:06.350Z,7.95
2023-02-12T11:36:36.088Z,8.07
2023-02-12T11:39:02.800Z,7.95
2023-02-12T11:41:41.175Z,7.75
2023-02-12T11:44:13.348Z,6.70
2023-02-12T11:49:09.328Z,5.68
2023-02-12T11:51:36.644Z,5.07
2023-02-12T11:54:06.217Z,3.80
2023-02-12T11:56:45.526Z,3.90
2023-02-12T11:59:42.709Z,3.50
2023-02-12T12:02:23.621Z,3.10
2023-02-12T12:04:56.025Z,2.78
2023-02-12T12:07:32.015Z,2.35
2023-02-12T12:10:06.781Z,3.33
2023-02-12T12:12:42.013Z,3.25
2023-02-12T12:15:51.020Z,2.55
2023-02-12T12:18:52.743Z,3.13
2023-02-12T12:21:30.849Z,2.53
2023-02-12T12:24:02.713Z,3.35
2023-02-12T12:26:31.704Z,3.78
2023-02-12T12:29:14.048Z,2.33
2023-02-12T12:34:13.793Z,1.88
2023-02-12T12:37:18.745Z,1.27
2023-02-12T12:39:54.253Z,1.40
2023-02-12T12:42:37.693Z,1.13
2023-02-12T12:45:31.843Z,1.30
2023-02-12T12:48:13.623Z,1.70
2023-02-12T12:50:46.801Z,2.78
2023-02-12T12:53:18.551Z,1.65
2023-02-12T12:56:00.274Z,1.35
2023-02-12T12:58:54.082Z,1.30
2023-02-12T13:01:26.233Z,1.05
2023-02-12T13:06:37.442Z,1.10
2023-02-12T13:09:21.260Z,1.77
2023-02-12T13:12:02.956Z,1.55
2023-02-12T13:14:47.382Z,1.25
2023-02-12T13:17:41.106Z,1.10
2023-02-12T13:20:31.607Z,1.35
2023-02-12T13:23:09.504Z,1.58
2023-02-12T13:25:46.548Z,2.53
2023-02-12T13:28:19.301Z,2.08
2023-02-12T13:30:52.975Z,1.38
2023-02-12T13:33:27.245Z,1.50
2023-02-12T13:35:59.323Z,1.80
2023-02-12T13:38:30.890Z,2.50
2023-02-12T13:41:04.783Z,2.47
2023-02-12T13:43:50.065Z,2.15
2023-02-12T13:46:30.124Z,2.22
2023-02-12T13:49:10.960Z,1.45
2023-02-12T13:51:47.675Z,1.50
2023-02-12T13:54:27.097Z,1.65
2023-02-12T13:56:57.465Z,2.30
2023-02-12T13:59:32.977Z,1.42
2023-02-12T14:02:23.931Z,2.85
2023-02-12T14:04:55.753Z,1.90
2023-02-12T14:07:26.865Z,1.90
2023-02-12T14:09:53.208Z,1.77
2023-02-12T14:12:37.323Z,1.88
2023-02-12T14:15:18.109Z,1.63
2023-02-12T14:18:06.696Z,2.50
2023-02-12T14:20:37.390Z,2.90
2023-02-12T14:23:40.997Z,2.78
2023-02-12T14:26:14.379Z,1.90
2023-02-12T14:28:54.884Z,2.38
2023-02-12T14:31:23.547Z,2.35
2023-02-12T14:34:15.686Z,2.45
2023-02-12T14:37:09.150Z,2.58
2023-02-12T14:39:35.697Z,2.80
2023-02-12T14:42:14.673Z,2.47
2023-02-12T14:44:59.786Z,3.70
2023-02-12T14:47:29.290Z,3.20
2023-02-12T14:50:01.393Z,2.80
2023-02-12T14:52:35.181Z,3.63
2023-02-12T14:55:22.983Z,3.30
2023-02-12T14:57:54.775Z,3.58
2023-02-12T15:00:35.126Z,3.05
2023-02-12T15:03:27.176Z,3.15
2023-02-12T15:06:02.770Z,3.00
2023-02-12T15:08:44.643Z,3.67
2023-02-12T15:11:40.370Z,3.30
2023-02-12T15:14:24.638Z,3.72
2023-02-12T15:16:58.490Z,3.13
2023-02-12T15:19:43.311Z,3.45
2023-02-12T15:22:38.212Z,3.40
2023-02-12T15:25:24.661Z,2.25
2023-02-12T15:28:18.936Z,3.35
2023-02-12T15:30:48.988Z,3.03
2023-02-12T15:33:36.813Z,3.75
2023-02-12T15:36:04.801Z,3.58
2023-02-12T15:38:41.587Z,3.70
2023-02-12T15:41:09.156Z,3.05
2023-02-12T15:43:43.053Z,3.85
2023-02-12T15:46:17.870Z,3.60
2023-02-12T15:49:03.487Z,2.90
2023-02-12T15:51:44.198Z,3.67
2023-02-12T15:54:18.448Z,3.85
2023-02-12T15:56:48.324Z,6.32
2023-02-12T15:59:23.519Z,5.22
2023-02-12T16:01:58.756Z,8.13
2023-02-12T16:04:31.672Z,6.68
2023-02-12T16:07:00.121Z,5.88
2023-02-12T16:09:51.133Z,8.18
2023-02-12T16:12:31.859Z,7.45
2023-02-12T16:15:05.573Z,3.72
2023-02-12T16:17:34.327Z,3.33
2023-02-12T16:20:00.712Z,2.58
2023-02-12T16:22:40.997Z,2.20
2023-02-12T16:25:17.608Z,2.53
2023-02-12T16:27:59.538Z,2.15
2023-02-12T16:30:30.896Z,2.38
2023-02-12T16:32:58.970Z,2.28
2023-02-12T16:35:40.215Z,3.10
2023-02-12T16:38:45.097Z,3.67
2023-02-12T16:41:16.093Z,3.88
2023-02-12T16:43:43.682Z,16.05
2023-02-12T16:46:12.805Z,38.00
2023-02-12T16:48:42.798Z,20.05
2023-02-12T16:51:29.870Z,14.70
2023-02-12T16:54:07.272Z,10.70
2023-02-12T16:56:40.310Z,7.03
2023-02-12T16:59:09.090Z,6.53
2023-02-12T17:01:37.000Z,5.60
2023-02-12T17:04:18.561Z,6.85
2023-02-12T17:06:47.939Z,7.82
2023-02-12T17:09:14.429Z,9.18
2023-02-12T17:11:42.185Z,7.82
2023-02-12T17:14:16.882Z,7.53
2023-02-12T17:16:43.908Z,7.47
2023-02-12T17:19:13.956Z,7.63
2023-02-12T17:21:43.670Z,8.23
2023-02-12T17:24:30.692Z,8.10
2023-02-12T17:27:01.974Z,7.55
2023-02-12T17:29:29.230Z,8.02
2023-02-12T17:32:00.190Z,9.65
2023-02-12T17:34:39.687Z,9.13
2023-02-12T17:37:15.682Z,9.90
2023-02-12T17:39:42.032Z,10.80
2023-02-12T17:42:08.573Z,9.02
2023-02-12T17:44:35.091Z,10.40
2023-02-12T17:47:01.472Z,11.73
2023-02-12T17:49:28.039Z,10.80
2023-02-12T17:51:54.590Z,11.10
2023-02-12T17:54:21.276Z,11.48
2023-02-12T17:56:50.621Z,11.48
2023-02-12T17:59:17.364Z,10.13
2023-02-12T18:01:44.152Z,12.35
2023-02-12T18:04:13.012Z,11.45
2023-02-12T18:06:39.615Z,12.75
2023-02-12T18:09:06.231Z,11.00
2023-02-12T18:11:33.037Z,10.68
2023-02-12T18:14:02.591Z,11.93
2023-02-12T18:16:31.668Z,11.55
2023-02-12T18:18:59.903Z,12.98
2023-02-12T18:21:26.457Z,11.38
2023-02-12T18:23:54.049Z,12.95
2023-02-12T18:26:21.353Z,12.93
2023-02-12T18:28:50.026Z,11.90
2023-02-12T18:31:19.320Z,12.63
2023-02-12T18:33:48.678Z,14.38
2023-02-12T18:36:17.500Z,13.60
2023-02-12T18:38:45.734Z,14.07
2023-02-12T18:41:18.023Z,14.13
2023-02-12T18:43:45.045Z,14.32
2023-02-12T18:46:20.643Z,15.57
2023-02-12T18:48:47.745Z,15.23
2023-02-12T18:51:21.025Z,15.05
2023-02-12T18:53:48.770Z,14.55
2023-02-12T18:56:15.320Z,13.68
2023-02-12T18:58:41.806Z,16.63
2023-02-12T19:01:15.728Z,13.98
2023-02-12T19:03:42.737Z,15.32
2023-02-12T19:06:09.145Z,15.27
2023-02-12T19:08:35.847Z,15.10
2023-02-12T19:11:04.577Z,16.27
2023-02-12T19:13:33.401Z,14.80
2023-02-12T19:16:03.024Z,15.63
2023-02-12T19:18:29.459Z,16.17
2023-02-12T19:21:01.337Z,17.27
2023-02-12T19:23:27.977Z,18.92
2023-02-12T19:26:06.256Z,19.15
2023-02-12T19:28:36.346Z,18.13
2023-02-12T19:31:18.192Z,18.50
2023-02-12T19:33:45.578Z,18.40
2023-02-12T19:36:18.176Z,18.90
2023-02-12T19:38:47.624Z,18.70
2023-02-12T19:41:17.431Z,21.15
2023-02-12T19:43:44.379Z,20.95
2023-02-12T19:46:17.763Z,20.83
2023-02-12T19:48:59.399Z,23.70
2023-02-12T19:51:33.428Z,24.95
2023-02-12T19:54:01.950Z,22.70
2023-02-12T19:56:28.687Z,23.20
2023-02-12T19:59:00.930Z,21.60
2023-02-12T20:01:28.700Z,25.08
2023-02-12T20:03:57.488Z,26.33
2023-02-12T20:06:27.389Z,23.88
2023-02-12T20:08:53.870Z,27.20
2023-02-12T20:11:24.140Z,23.90
2023-02-12T20:13:51.252Z,23.83
2023-02-12T20:16:20.265Z,21.92
2023-02-12T20:18:49.202Z,22.02
2023-02-12T20:21:25.645Z,19.20
2023-02-12T20:23:52.126Z,20.40
2023-02-12T20:26:19.840Z,19.10
2023-02-12T20:28:49.934Z,18.75
2023-02-12T20:31:22.091Z,17.80
2023-02-12T20:33:52.809Z,16.55
2023-02-12T20:36:19.325Z,15.52
2023-02-12T20:38:47.231Z,16.35
2023-02-12T20:41:13.756Z,15.38
2023-02-12T20:43:43.089Z,16.15
2023-02-12T20:46:15.416Z,14.63
2023-02-12T20:48:42.659Z,14.20
2023-02-12T20:51:14.448Z,13.90
2023-02-12T20:53:42.115Z,12.27
2023-02-12T20:56:16.202Z,12.02
2023-02-12T20:58:44.974Z,12.68
2023-02-12T21:01:19.590Z,8.95
2023-02-12T21:03:46.085Z,9.65
2023-02-12T21:06:15.665Z,9.40
2023-02-12T21:08:42.725Z,9.65
2023-02-12T21:11:20.729Z,10.90
2023-02-12T21:14:02.338Z,9.85
2023-02-12T21:16:34.814Z,9.38
2023-02-12T21:19:01.867Z,7.72
2023-02-12T21:21:34.203Z,8.73
2023-02-12T21:24:07.113Z,9.73
2023-02-12T21:26:36.191Z,9.07
2023-02-12T21:29:03.583Z,9.48
2023-02-12T21:31:33.341Z,8.93
2023-02-12T21:34:08.606Z,9.63
2023-02-12T21:36:39.613Z,8.38
2023-02-12T21:39:08.860Z,9.23
2023-02-12T21:41:41.650Z,9.15
2023-02-12T21:44:12.035Z,8.38
2023-02-12T21:46:41.450Z,8.13
2023-02-12T21:49:08.304Z,8.82
2023-02-12T21:51:42.205Z,8.02
2023-02-12T21:54:12.580Z,8.70
2023-02-12T21:56:44.134Z,8.25
2023-02-12T21:59:20.010Z,7.73
2023-02-12T22:01:49.823Z,8.10
2023-02-12T22:04:20.321Z,8.32
2023-02-12T22:06:51.003Z,8.95
2023-02-12T22:09:22.277Z,9.13
2023-02-12T22:11:52.605Z,9.48
2023-02-12T22:14:20.716Z,14.60
2023-02-12T22:16:47.770Z,14.10
2023-02-12T22:19:15.338Z,13.25
2023-02-12T22:21:44.890Z,13.60
2023-02-12T22:24:16.207Z,15.13
2023-02-12T22:26:46.028Z,14.43
2023-02-12T22:29:17.890Z,16.90
2023-02-12T22:31:48.578Z,15.40
2023-02-12T22:34:19.025Z,15.02
2023-02-12T22:36:46.782Z,18.35
2023-02-12T22:39:14.250Z,20.42
2023-02-12T22:41:44.364Z,18.30
2023-02-12T22:44:13.185Z,18.55
2023-02-12T22:46:43.217Z,18.52
2023-02-12T22:49:15.779Z,17.45
2023-02-12T22:51:47.228Z,18.00
2023-02-12T22:54:18.795Z,17.13
2023-02-12T22:56:46.928Z,19.47
2023-02-12T22:59:13.561Z,20.33
2023-02-12T23:01:46.671Z,19.17
2023-02-12T23:04:18.211Z,18.17
2023-02-12T23:06:47.125Z,20.27
2023-02-12T23:09:24.396Z,18.98
2023-02-12T23:11:51.065Z,18.60
2023-02-12T23:14:18.159Z,19.83
2023-02-12T23:16:45.360Z,17.75
2023-02-12T23:19:12.348Z,17.45
2023-02-12T23:21:41.941Z,17.60
2023-02-12T23:24:15.603Z,15.57
2023-02-12T23:26:44.564Z,17.45
2023-02-12T23:29:11.131Z,17.58
2023-02-12T23:31:37.692Z,20.05
2023-02-12T23:34:04.294Z,18.85
2023-02-12T23:36:36.254Z,17.65
2023-02-12T23:39:05.860Z,17.52
2023-02-12T23:41:34.848Z,17.77
2023-02-12T23:44:11.777Z,17.77
2023-02-12T23:46:38.379Z,17.15
2023-02-12T23:49:05.588Z,16.92
2023-02-12T23:51:32.614Z,16.42
2023-02-12T23:54:04.350Z,18.35
2023-02-12T23:56:30.936Z,18.05
2023-02-12T23:59:10.796Z,17.02
